This is the latest recevied weather packets stored in our database for station/object KK7PZE-13. If no packets are shown the sender has not sent any weather packets the latest 10 day(s).
| Time | Temp. | Humidity | Pressure | Rain* | Wind** | Luminosity | Snow |
|---|---|---|---|---|---|---|---|
| 1777704362 | 22.22° C | 23% | 1011.8 hPa | 0 mm | - | - | - |
| 1777703759 | 21.11° C | 25% | 1012 hPa | 0 mm | - | - | - |
| 1777703159 | 21.11° C | 26% | 1011.7 hPa | 0 mm | - | - | - |
| 1777702810 | 20.56° C | 27% | 1011.5 hPa | 0 mm | - | - | - |
| 1777702560 | 20.56° C | 27% | 1011.5 hPa | 0 mm | - | - | - |
| 1777701961 | 20.56° C | 27% | 1011.6 hPa | 0 mm | - | - | - |
| 1777701360 | 20.56° C | 27% | 1011.4 hPa | 0 mm | - | - | - |
| 1777700762 | 20.56° C | 27% | 1011.3 hPa | 0 mm | - | - | - |
| 1777699561 | 21.67° C | 26% | 1011.1 hPa | 0 mm | - | - | - |
| 1777698959 | 22.78° C | 24% | 1011.1 hPa | 0 mm | - | - | - |
| 1777698361 | 23.33° C | 23% | 1011.2 hPa | 0 mm | - | - | - |
| 1777697761 | 23.33° C | 23% | 1011 hPa | 0 mm | - | - | - |
| 1777697493 | 23.33° C | 23% | 1010.9 hPa | 0 mm | - | - | - |
| 1777697208 | 23.33° C | 23% | 1010.9 hPa | 0 mm | - | - | - |
| 1777697159 | 23.33° C | 23% | 1010.9 hPa | 0 mm | - | - | - |
| 1777696810 | 21.11° C | 26% | 1010.8 hPa | 0 mm | - | - | - |
| 1777696561 | 21.11° C | 26% | 1010.8 hPa | 0 mm | - | - | - |
| 1777695961 | 21.67° C | 26% | 1010.8 hPa | 0 mm | - | - | - |
| 1777695361 | 22.78° C | 24% | 1010.4 hPa | 0 mm | - | - | - |
| 1777694759 | 23.33° C | 24% | 1010.7 hPa | 0 mm | - | - | - |
| 1777694160 | 23.33° C | 23% | 1010.1 hPa | 0 mm | - | - | - |
| 1777693560 | 23.33° C | 23% | 1010.4 hPa | 0 mm | - | - | - |
| 1777693296 | 23.33° C | 23% | 1010.3 hPa | 0 mm | - | - | - |
| 1777692961 | 23.33° C | 23% | 1010.3 hPa | 0 mm | - | - | - |
| 1777692359 | 23.33° C | 23% | 1010 hPa | 0 mm | - | - | - |
* Rain latest hour (hover to see other rain measurements)
** Current wind speed in m/s (hover to see current wind gust speed)